AID weather

Anderson Municipal Darlington Field
Anderson, Indiana, United States

Public forecast

Using degrees Fahrenheit for public forecast. Weather courtesy of forecast.io.

METAR (pilot weather report)

Retrieved 2019/05/21 12:35 UTC (0 seconds ago):

KAID 211235Z AUTO 10006KT 10SM CLR 09/06 A3014 RMK AO2 T00930060

TAF (pilot weather forecast)

Closest forecast is Indianapolis International Airport, 39.2 nm (72.6 km) SW. Retrieved 2019/05/21 12:28 UTC (0 seconds ago):

TAF KIND 211126Z 2112/2218 08010KT P6SM VCSH BKN100 FM211700 08010KT P6SM BKN100 FM220400 11015KT P6SM BKN250 WS020/14040KT FM220900 14012KT 6SM -SHRA BR BKN100 WS020/18040KT FM221200 15009KT P6SM BKN070 FM221700 20011KT P6SM BKN035